Time;durP1;ratioP1;P1;durP2;ratioP2;P2;SDS_P1;SDS_P2;PMS_P1;PMS_P2;Temp;Humidity;BMP_temperature;BMP_pressure;BME280_temperature;BME280_humidity;BME280_pressure;Samples;Min_cycle;Max_cycle;Signal;HPM_P1;HPM_P2
2023/11/23 00:00:43;;;;;;;40.58;21.85;;;8.10;99.90;;;;;;5069397;28;20017;-72
2023/11/23 00:03:08;;;;;;;45.72;22.13;;;8.10;99.90;;;;;;5069374;28;20036;-72
2023/11/23 00:05:34;;;;;;;45.40;20.52;;;8.10;99.90;;;;;;5072953;28;20105;-72
2023/11/23 00:08:00;;;;;;;44.15;23.05;;;8.10;99.90;;;;;;5080529;28;20485;-72
2023/11/23 00:10:27;;;;;;;48.58;24.38;;;8.10;99.90;;;;;;5056793;28;20024;-71
2023/11/23 00:12:52;;;;;;;47.58;23.92;;;8.10;99.90;;;;;;5061903;28;20021;-72
2023/11/23 00:15:18;;;;;;;38.92;21.58;;;8.10;99.90;;;;;;5082593;28;20028;-72
2023/11/23 00:17:50;;;;;;;43.67;22.27;;;8.10;99.90;;;;;;5076418;28;20028;-72
2023/11/23 00:20:16;;;;;;;49.75;23.25;;;8.10;99.90;;;;;;5074825;28;20036;-72
2023/11/23 00:22:42;;;;;;;44.17;22.33;;;8.10;99.90;;;;;;5075279;28;20082;-72
2023/11/23 00:25:11;;;;;;;50.63;23.48;;;8.10;99.90;;;;;;5076859;28;20490;-72
2023/11/23 00:27:37;;;;;;;47.15;24.00;;;8.10;99.90;;;;;;5082964;28;20134;-72
2023/11/23 00:30:04;;;;;;;53.30;27.10;;;8.10;99.90;;;;;;5079380;28;20072;-72
2023/11/23 00:32:29;;;;;;;50.95;24.85;;;8.10;99.90;;;;;;5056678;28;20029;-73
2023/11/23 00:34:55;;;;;;;48.22;25.63;;;8.10;99.90;;;;;;5062122;28;20044;-72
2023/11/23 00:37:21;;;;;;;47.45;24.25;;;8.10;99.90;;;;;;5083086;28;20057;-72
2023/11/23 00:39:47;;;;;;;54.33;26.45;;;8.10;99.90;;;;;;5075353;28;20109;-72
2023/11/23 00:42:13;;;;;;;60.55;28.08;;;8.20;99.90;;;;;;5057999;28;20054;-72
2023/11/23 00:44:39;;;;;;;49.58;24.50;;;8.20;99.90;;;;;;5082439;28;20028;-72
2023/11/23 00:47:05;;;;;;;53.35;26.35;;;8.20;99.90;;;;;;5050786;28;20027;-72
2023/11/23 00:49:30;;;;;;;49.90;25.98;;;8.20;99.90;;;;;;5070778;28;21225;-72
2023/11/23 00:51:56;;;;;;;61.00;28.58;;;8.20;99.90;;;;;;5079667;28;20386;-72
2023/11/23 00:54:22;;;;;;;54.17;27.52;;;8.20;99.90;;;;;;5050148;28;20163;-72
2023/11/23 00:56:47;;;;;;;57.95;25.67;;;8.20;99.90;;;;;;5075234;28;20106;-72
2023/11/23 00:59:13;;;;;;;57.70;27.30;;;8.20;99.90;;;;;;5082059;28;20484;-72
2023/11/23 01:01:39;;;;;;;54.65;26.92;;;8.30;99.90;;;;;;5074254;28;20012;-71
2023/11/23 01:04:05;;;;;;;60.67;27.10;;;8.30;99.90;;;;;;5077104;28;20017;-72
2023/11/23 01:06:31;;;;;;;59.85;28.80;;;8.30;99.90;;;;;;5072028;28;20024;-72
2023/11/23 01:08:56;;;;;;;61.63;28.13;;;8.30;99.90;;;;;;5081965;28;20048;-72
2023/11/23 01:11:23;;;;;;;57.58;27.42;;;8.30;99.90;;;;;;5068355;28;20035;-72
2023/11/23 01:13:49;;;;;;;58.47;27.23;;;8.30;99.90;;;;;;5081940;28;20013;-72
2023/11/23 01:16:15;;;;;;;56.60;27.42;;;8.30;99.90;;;;;;5067904;28;20119;-72
2023/11/23 01:18:42;;;;;;;61.72;29.77;;;8.40;99.90;;;;;;5068533;28;20406;-72
2023/11/23 01:21:08;;;;;;;57.25;28.38;;;8.40;99.90;;;;;;5080883;28;20020;-72
2023/11/23 01:23:33;;;;;;;58.20;27.73;;;8.40;99.90;;;;;;5081329;28;20039;-72
2023/11/23 01:25:59;;;;;;;59.15;27.55;;;8.50;99.90;;;;;;5073546;28;20023;-72
2023/11/23 01:28:25;;;;;;;61.13;29.25;;;8.50;99.90;;;;;;5076529;28;20031;-71
2023/11/23 01:30:50;;;;;;;62.92;28.73;;;8.50;99.90;;;;;;5081524;28;20032;-72
2023/11/23 01:35:47;;;;;;;60.90;30.30;;;8.60;99.90;;;;;;5073375;28;20036;-72
2023/11/23 01:38:13;;;;;;;63.70;29.98;;;8.70;99.90;;;;;;5077336;28;20059;-72
2023/11/23 01:40:38;;;;;;;54.60;29.00;;;8.70;99.90;;;;;;5081466;28;20047;-72
2023/11/23 01:43:10;;;;;;;54.08;27.45;;;8.70;99.90;;;;;;5081624;28;20025;-72
2023/11/23 01:45:37;;;;;;;55.40;26.88;;;8.70;99.90;;;;;;5071663;28;20031;-72
2023/11/23 01:48:03;;;;;;;57.97;28.35;;;8.80;99.90;;;;;;5076597;28;20055;-72
2023/11/23 01:50:34;;;;;;;56.33;27.88;;;8.80;99.90;;;;;;5051746;28;20081;-72
2023/11/23 01:53:00;;;;;;;53.38;28.67;;;8.90;99.90;;;;;;5059339;28;20054;-72
2023/11/23 01:55:26;;;;;;;53.15;28.15;;;8.90;99.90;;;;;;5050316;28;20020;-72
2023/11/23 01:57:56;;;;;;;58.15;27.90;;;8.90;99.90;;;;;;5079809;28;20058;-72
2023/11/23 02:00:24;;;;;;;58.45;26.80;;;8.90;99.90;;;;;;5071693;28;20089;-72
2023/11/23 02:02:51;;;;;;;56.15;29.95;;;9.00;99.90;;;;;;5059168;28;20143;-72
2023/11/23 02:05:17;;;;;;;52.55;29.45;;;9.00;99.90;;;;;;5056275;28;20081;-72
2023/11/23 02:07:42;;;;;;;51.63;28.30;;;9.10;99.90;;;;;;5081240;28;20470;-72
2023/11/23 02:10:08;;;;;;;56.33;29.67;;;9.10;99.90;;;;;;5066851;28;20024;-72
2023/11/23 02:12:35;;;;;;;57.33;30.08;;;9.10;99.90;;;;;;5069014;28;20576;-72
2023/11/23 02:15:02;;;;;;;49.20;26.75;;;9.20;99.90;;;;;;5060500;28;20393;-72
2023/11/23 02:17:30;;;;;;;41.75;25.38;;;9.20;99.90;;;;;;5081124;28;20028;-74
2023/11/23 02:19:56;;;;;;;53.55;27.33;;;9.20;99.90;;;;;;5073243;28;20024;-72
2023/11/23 02:22:22;;;;;;;54.40;27.88;;;9.20;99.90;;;;;;5073273;28;20256;-72
2023/11/23 02:24:47;;;;;;;50.35;26.60;;;9.20;99.90;;;;;;5080288;28;20139;-72
2023/11/23 02:27:13;;;;;;;46.33;25.73;;;9.30;99.90;;;;;;5077718;28;20103;-72
2023/11/23 02:29:39;;;;;;;44.83;26.10;;;9.30;99.90;;;;;;5072123;28;20021;-72
2023/11/23 02:32:09;;;;;;;49.45;26.25;;;9.30;99.90;;;;;;5078391;28;20489;-72
2023/11/23 02:34:36;;;;;;;47.37;26.27;;;9.30;99.90;;;;;;5080432;28;20020;-72
2023/11/23 02:37:02;;;;;;;46.80;25.63;;;9.40;99.90;;;;;;5071272;28;20042;-72
2023/11/23 02:39:28;;;;;;;42.63;23.35;;;9.40;99.90;;;;;;5052764;28;20526;-72
2023/11/23 02:41:55;;;;;;;44.42;23.92;;;9.40;99.90;;;;;;5066054;28;20032;-72
2023/11/23 02:44:21;;;;;;;49.83;24.48;;;9.50;99.90;;;;;;5048081;28;20935;-72
2023/11/23 02:46:48;;;;;;;46.08;24.45;;;9.40;99.90;;;;;;5066689;28;20111;-72
2023/11/23 02:49:20;;;;;;;48.08;24.70;;;9.50;99.90;;;;;;5048358;28;20048;-71
2023/11/23 02:51:45;;;;;;;42.00;24.33;;;9.50;99.90;;;;;;5066515;28;20075;-72
2023/11/23 02:54:12;;;;;;;42.58;24.45;;;9.50;99.90;;;;;;5060692;28;20017;-72
2023/11/23 02:56:37;;;;;;;41.13;23.88;;;9.50;99.90;;;;;;5066740;28;20021;-72
2023/11/23 02:59:04;;;;;;;42.13;24.30;;;9.50;99.90;;;;;;5066216;28;20500;-72
2023/11/23 03:01:32;;;;;;;40.13;23.35;;;9.60;99.90;;;;;;5066227;28;20082;-72
2023/11/23 03:03:57;;;;;;;39.97;23.75;;;9.60;99.90;;;;;;5066285;28;20032;-72
2023/11/23 03:06:23;;;;;;;40.42;23.42;;;9.60;99.90;;;;;;5066514;28;20028;-72
2023/11/23 03:08:51;;;;;;;37.95;22.25;;;9.60;99.90;;;;;;5066110;28;20071;-72
2023/11/23 03:11:21;;;;;;;41.28;23.40;;;9.60;99.90;;;;;;5066395;28;20016;-72
2023/11/23 03:13:47;;;;;;;36.20;22.83;;;9.60;99.90;;;;;;5067108;28;20021;-72
2023/11/23 03:16:13;;;;;;;46.67;24.25;;;9.70;99.90;;;;;;5070354;28;20020;-72
2023/11/23 03:18:39;;;;;;;35.47;22.70;;;9.70;99.90;;;;;;5069843;28;20028;-72
2023/11/23 03:21:05;;;;;;;32.33;20.80;;;9.70;99.90;;;;;;5070015;28;20493;-72
2023/11/23 03:23:31;;;;;;;39.72;21.48;;;9.70;99.90;;;;;;5070113;28;20166;-72
2023/11/23 03:25:57;;;;;;;39.42;21.58;;;9.80;99.90;;;;;;5069508;28;20020;-72
2023/11/23 03:28:23;;;;;;;33.92;20.50;;;9.80;99.90;;;;;;5069728;28;20028;-72
2023/11/23 03:30:49;;;;;;;32.45;19.33;;;9.80;99.90;;;;;;5069581;28;20086;-71
2023/11/23 03:33:15;;;;;;;31.77;19.60;;;9.90;99.90;;;;;;5070223;28;20101;-72
2023/11/23 03:35:41;;;;;;;35.33;19.25;;;9.90;99.90;;;;;;5069553;28;20123;-72
2023/11/23 03:38:07;;;;;;;33.97;19.83;;;9.90;99.90;;;;;;5064724;28;20033;-72
2023/11/23 03:40:33;;;;;;;34.35;20.05;;;9.90;99.90;;;;;;5060658;28;20033;-72
2023/11/23 03:42:59;;;;;;;34.65;21.27;;;9.90;99.90;;;;;;5069835;28;20028;-72
2023/11/23 03:45:25;;;;;;;42.30;20.23;;;10.00;99.90;;;;;;5069560;28;20052;-71
2023/11/23 03:47:52;;;;;;;39.58;20.20;;;10.00;99.90;;;;;;5069485;28;20024;-72
2023/11/23 03:50:18;;;;;;;31.30;19.30;;;10.00;99.90;;;;;;5067776;28;20703;-72
2023/11/23 03:52:43;;;;;;;31.00;19.27;;;10.00;99.90;;;;;;5069512;28;20112;-72
2023/11/23 03:55:09;;;;;;;34.53;19.42;;;10.00;99.90;;;;;;5069559;28;20020;-72
2023/11/23 03:57:39;;;;;;;30.75;19.48;;;10.10;99.90;;;;;;5067962;28;20046;-72
2023/11/23 04:00:06;;;;;;;30.00;18.38;;;10.10;99.90;;;;;;5069561;28;20060;-72
2023/11/23 04:02:32;;;;;;;35.10;19.25;;;10.10;99.90;;;;;;5037647;28;20028;-72
2023/11/23 04:04:58;;;;;;;32.25;19.17;;;10.10;99.90;;;;;;5069104;28;20025;-72
2023/11/23 04:07:24;;;;;;;34.95;17.60;;;10.10;99.90;;;;;;5069186;28;20421;-72
2023/11/23 04:09:49;;;;;;;34.28;18.45;;;10.10;99.90;;;;;;5068999;28;20052;-73
2023/11/23 04:12:15;;;;;;;32.90;19.10;;;10.10;99.90;;;;;;5069515;28;20017;-72
2023/11/23 04:14:41;;;;;;;30.25;18.75;;;10.20;99.90;;;;;;5068973;28;20760;-72
2023/11/23 04:17:07;;;;;;;31.05;17.83;;;10.20;99.90;;;;;;5069036;28;20448;-72
2023/11/23 04:19:32;;;;;;;31.17;18.30;;;10.20;99.90;;;;;;5068530;28;20032;-72
2023/11/23 04:21:59;;;;;;;29.15;16.70;;;10.20;99.90;;;;;;5069005;28;20058;-72
2023/11/23 04:24:25;;;;;;;29.48;16.83;;;10.30;99.90;;;;;;5050745;28;20024;-72
2023/11/23 04:26:52;;;;;;;29.63;17.48;;;10.30;99.90;;;;;;5067860;28;20104;-72
2023/11/23 04:29:19;;;;;;;33.30;17.88;;;10.30;99.90;;;;;;5068517;28;20494;-72
2023/11/23 04:31:45;;;;;;;27.83;16.35;;;10.30;99.90;;;;;;5068606;28;20028;-72
2023/11/23 04:34:11;;;;;;;25.25;15.75;;;10.30;99.90;;;;;;5068756;28;20303;-72
2023/11/23 04:36:36;;;;;;;25.23;16.42;;;10.40;99.90;;;;;;5068457;28;20473;-72
2023/11/23 04:39:03;;;;;;;28.45;14.57;;;10.40;99.90;;;;;;5068396;28;20052;-72
2023/11/23 04:41:29;;;;;;;28.25;15.93;;;10.40;99.90;;;;;;5068292;28;20359;-72
2023/11/23 04:43:55;;;;;;;22.67;14.23;;;10.40;99.90;;;;;;5068738;28;20032;-72
2023/11/23 04:46:20;;;;;;;22.75;13.55;;;10.40;99.90;;;;;;5068148;28;20050;-72
2023/11/23 04:48:47;;;;;;;26.48;14.05;;;10.40;99.90;;;;;;5068172;28;20017;-71
2023/11/23 04:51:14;;;;;;;25.67;13.55;;;10.50;99.90;;;;;;5050033;28;20397;-72
2023/11/23 04:53:40;;;;;;;25.38;13.43;;;10.50;99.90;;;;;;5068528;28;20017;-72
2023/11/23 04:56:06;;;;;;;24.60;12.98;;;10.40;99.90;;;;;;5067994;28;20449;-72
2023/11/23 04:58:32;;;;;;;24.60;14.23;;;10.50;99.90;;;;;;5066944;28;20024;-72
2023/11/23 05:01:00;;;;;;;26.60;14.20;;;10.50;99.90;;;;;;5067829;28;20025;-73
2023/11/23 05:03:28;;;;;;;29.30;14.25;;;10.50;99.90;;;;;;5068114;28;20029;-72
2023/11/23 05:05:54;;;;;;;22.95;13.63;;;10.50;99.90;;;;;;5049688;28;20013;-72
2023/11/23 05:08:20;;;;;;;24.63;13.55;;;10.60;99.90;;;;;;5068053;28;20569;-72
2023/11/23 05:10:46;;;;;;;22.35;12.80;;;10.60;99.90;;;;;;5067456;28;20508;-72
2023/11/23 05:13:12;;;;;;;23.73;13.68;;;10.60;99.90;;;;;;5068163;28;20107;-72
2023/11/23 05:15:38;;;;;;;22.92;12.85;;;10.60;99.90;;;;;;5067539;28;20120;-72
2023/11/23 05:18:04;;;;;;;21.50;13.88;;;10.60;99.90;;;;;;5068066;28;20503;-73
2023/11/23 05:20:30;;;;;;;24.40;12.48;;;10.60;99.90;;;;;;5067440;28;20502;-72
2023/11/23 05:22:56;;;;;;;24.73;13.73;;;10.60;99.90;;;;;;5067843;28;20375;-72
2023/11/23 05:25:21;;;;;;;26.52;13.35;;;10.60;99.90;;;;;;5067119;28;20090;-72
2023/11/23 05:27:47;;;;;;;26.45;13.13;;;10.60;99.90;;;;;;5067543;28;20017;-73
2023/11/23 05:30:13;;;;;;;23.10;12.32;;;10.60;99.90;;;;;;5067199;28;20222;-73
2023/11/23 05:32:39;;;;;;;23.90;12.27;;;10.60;99.90;;;;;;5067413;28;20036;-72
2023/11/23 05:35:07;;;;;;;23.15;13.20;;;10.60;99.90;;;;;;5067102;28;20059;-72
2023/11/23 05:37:33;;;;;;;22.98;10.98;;;10.50;99.90;;;;;;5047575;28;20486;-72
2023/11/23 05:39:59;;;;;;;21.90;12.27;;;10.60;99.90;;;;;;5053698;28;20078;-72
2023/11/23 05:42:26;;;;;;;18.13;11.43;;;10.50;99.90;;;;;;5067287;28;20090;-72
2023/11/23 05:44:52;;;;;;;19.63;12.23;;;10.50;99.90;;;;;;5066802;28;20020;-72
2023/11/23 05:47:18;;;;;;;22.25;11.98;;;10.50;99.90;;;;;;5067550;28;20032;-72
2023/11/23 05:49:44;;;;;;;21.60;11.73;;;10.50;99.90;;;;;;5049064;28;20434;-73
2023/11/23 05:52:10;;;;;;;22.85;12.10;;;10.50;99.90;;;;;;5067139;28;20020;-72
2023/11/23 05:54:37;;;;;;;23.88;12.75;;;10.50;99.90;;;;;;5066899;28;20556;-72
2023/11/23 05:57:03;;;;;;;22.08;12.57;;;10.50;99.90;;;;;;5067004;28;20024;-72
2023/11/23 05:59:29;;;;;;;20.13;12.25;;;10.50;99.90;;;;;;5048885;28;20028;-73
2023/11/23 06:01:55;;;;;;;25.35;12.88;;;10.50;99.90;;;;;;5067159;28;20032;-73
2023/11/23 06:04:20;;;;;;;25.38;13.50;;;10.50;99.90;;;;;;5066961;28;20579;-72
2023/11/23 06:06:46;;;;;;;25.13;14.23;;;10.50;99.90;;;;;;5066803;28;20027;-73
2023/11/23 06:09:12;;;;;;;23.73;13.52;;;10.50;99.90;;;;;;5066706;28;20382;-72
2023/11/23 06:11:37;;;;;;;28.40;14.27;;;10.50;99.90;;;;;;5066621;28;20032;-72
2023/11/23 06:14:03;;;;;;;26.10;15.00;;;10.50;99.90;;;;;;5049360;28;20021;-73
2023/11/23 06:16:29;;;;;;;25.73;14.30;;;10.50;99.90;;;;;;5066479;28;20131;-73
2023/11/23 06:18:55;;;;;;;29.98;16.55;;;10.50;99.90;;;;;;5066946;28;20030;-72
2023/11/23 06:21:21;;;;;;;29.45;15.88;;;10.60;99.90;;;;;;5066750;28;20028;-72
2023/11/23 06:23:47;;;;;;;25.65;15.57;;;10.60;99.90;;;;;;5066953;28;20074;-72
2023/11/23 06:26:13;;;;;;;32.03;16.55;;;10.60;99.90;;;;;;5066250;28;20050;-72
2023/11/23 06:28:39;;;;;;;29.83;15.45;;;10.60;99.90;;;;;;5066791;28;20019;-73
2023/11/23 06:31:05;;;;;;;30.08;16.30;;;10.60;99.90;;;;;;5066701;28;20486;-72
2023/11/23 06:33:31;;;;;;;26.38;15.20;;;10.60;99.90;;;;;;5048506;28;20044;-72
2023/11/23 06:35:57;;;;;;;21.40;14.45;;;10.60;99.90;;;;;;5066350;28;20059;-72
2023/11/23 06:38:24;;;;;;;24.58;15.43;;;10.70;99.90;;;;;;5059273;28;20060;-72
2023/11/23 06:40:51;;;;;;;26.33;15.10;;;10.70;99.90;;;;;;5059896;28;20048;-73
2023/11/23 06:43:16;;;;;;;25.20;15.50;;;10.70;99.90;;;;;;5066732;28;20074;-72
2023/11/23 06:45:42;;;;;;;24.17;14.15;;;10.70;99.90;;;;;;5065715;28;20755;-72
2023/11/23 06:48:08;;;;;;;25.48;13.55;;;10.70;99.90;;;;;;5067351;28;20048;-72
2023/11/23 06:50:35;;;;;;;26.92;15.02;;;10.70;99.90;;;;;;5071794;28;20016;-72
2023/11/23 06:53:00;;;;;;;22.80;14.50;;;10.70;99.90;;;;;;5073239;28;20516;-72
2023/11/23 06:55:26;;;;;;;25.23;13.93;;;10.70;99.90;;;;;;5072235;28;20036;-73
2023/11/23 06:57:52;;;;;;;25.73;13.75;;;10.70;99.90;;;;;;5072876;28;20016;-72
2023/11/23 07:00:24;;;;;;;22.75;13.63;;;10.80;99.90;;;;;;5072546;28;20115;-72
2023/11/23 07:02:53;;;;;;;23.52;14.82;;;10.80;99.90;;;;;;5054879;28;20028;-73
2023/11/23 07:05:19;;;;;;;24.58;13.55;;;10.80;99.90;;;;;;5067582;28;20024;-72
2023/11/23 07:07:47;;;;;;;20.40;12.70;;;10.80;99.90;;;;;;5054676;28;20461;-72
2023/11/23 07:10:13;;;;;;;22.80;13.27;;;10.80;99.90;;;;;;5072395;28;20024;-73
2023/11/23 07:12:40;;;;;;;23.88;12.38;;;10.80;99.90;;;;;;5072825;28;20106;-73
2023/11/23 07:15:06;;;;;;;22.67;11.27;;;10.80;99.90;;;;;;5072146;28;20027;-72
2023/11/23 07:17:32;;;;;;;22.95;13.05;;;10.80;99.90;;;;;;5072371;28;20409;-72
2023/11/23 07:19:57;;;;;;;23.25;12.20;;;10.80;99.90;;;;;;5054697;28;20021;-72
2023/11/23 07:22:23;;;;;;;21.23;12.68;;;10.80;99.90;;;;;;5072873;28;20025;-72
2023/11/23 07:24:49;;;;;;;27.58;13.23;;;10.80;99.90;;;;;;5073266;28;20545;-72
2023/11/23 07:27:16;;;;;;;20.25;11.23;;;10.80;99.90;;;;;;5072990;28;20096;-72
2023/11/23 07:29:41;;;;;;;21.05;11.07;;;10.80;99.90;;;;;;5072754;28;20024;-73
2023/11/23 07:32:09;;;;;;;22.90;10.75;;;10.80;99.90;;;;;;5071449;28;20025;-73
2023/11/23 07:34:35;;;;;;;23.35;10.80;;;10.80;99.90;;;;;;5072384;28;20543;-73
2023/11/23 07:37:01;;;;;;;21.83;11.32;;;10.80;99.90;;;;;;5071848;28;20032;-72
2023/11/23 07:39:26;;;;;;;23.10;11.70;;;10.80;99.90;;;;;;5070978;28;20052;-73
2023/11/23 07:41:53;;;;;;;21.00;11.20;;;10.80;99.90;;;;;;5071890;28;20029;-72
2023/11/23 07:44:20;;;;;;;21.88;11.73;;;10.80;99.90;;;;;;5072146;28;20421;-73
2023/11/23 07:46:47;;;;;;;21.42;11.27;;;10.80;99.90;;;;;;5071633;28;20017;-72
2023/11/23 07:49:13;;;;;;;19.55;10.48;;;10.80;99.90;;;;;;5072605;28;20022;-72
2023/11/23 07:51:39;;;;;;;21.70;12.57;;;10.80;99.90;;;;;;5061230;28;20033;-72
2023/11/23 07:54:05;;;;;;;22.33;12.30;;;10.80;99.90;;;;;;5072199;28;20082;-72
2023/11/23 07:56:32;;;;;;;21.70;10.60;;;10.80;99.90;;;;;;5071037;28;20033;-73
2023/11/23 07:58:58;;;;;;;18.42;10.45;;;10.90;99.90;;;;;;5072772;28;20039;-72
2023/11/23 08:01:25;;;;;;;25.35;10.93;;;10.90;99.90;;;;;;5068271;28;20036;-72
2023/11/23 08:03:51;;;;;;;23.02;11.95;;;10.90;99.90;;;;;;5069349;28;20745;-72
2023/11/23 08:06:17;;;;;;;22.45;11.43;;;10.90;99.90;;;;;;5068415;28;20029;-72
2023/11/23 08:08:43;;;;;;;21.70;11.30;;;11.00;99.90;;;;;;5062110;28;20055;-73
2023/11/23 08:11:09;;;;;;;17.80;9.82;;;11.00;99.90;;;;;;5050522;28;20039;-73
2023/11/23 08:13:35;;;;;;;23.13;10.88;;;11.00;99.90;;;;;;5081221;28;20564;-73
2023/11/23 08:16:04;;;;;;;19.98;10.68;;;11.00;99.90;;;;;;5057760;28;20135;-73
2023/11/23 08:18:30;;;;;;;18.33;10.38;;;11.00;99.90;;;;;;5049102;28;20044;-73
2023/11/23 08:20:57;;;;;;;20.40;10.43;;;11.00;99.90;;;;;;5046951;28;20028;-73
2023/11/23 08:23:23;;;;;;;20.48;10.77;;;11.00;99.90;;;;;;5067590;28;20478;-73
2023/11/23 08:25:49;;;;;;;17.52;9.80;;;11.00;99.90;;;;;;5067773;28;20033;-73
2023/11/23 08:28:16;;;;;;;17.73;10.27;;;11.10;99.90;;;;;;5068615;28;20023;-73
2023/11/23 08:30:42;;;;;;;24.50;10.77;;;11.00;99.90;;;;;;5066773;28;20369;-72
2023/11/23 08:33:08;;;;;;;21.90;10.88;;;11.10;99.90;;;;;;5043552;28;20465;-73
2023/11/23 08:35:33;;;;;;;19.30;11.13;;;11.10;99.90;;;;;;5065354;28;20044;-73
2023/11/23 08:38:00;;;;;;;19.67;11.60;;;11.10;99.90;;;;;;5067451;28;20117;-73
2023/11/23 08:40:26;;;;;;;22.20;10.90;;;11.10;99.90;;;;;;5067152;28;20052;-73
2023/11/23 08:42:52;;;;;;;19.60;10.30;;;11.10;99.90;;;;;;5067453;28;20079;-73
2023/11/23 08:45:18;;;;;;;19.83;9.98;;;11.10;99.90;;;;;;5067886;28;20036;-73
2023/11/23 08:47:43;;;;;;;26.27;11.45;;;11.10;99.90;;;;;;5067943;28;20044;-73
2023/11/23 08:50:10;;;;;;;15.43;10.63;;;11.10;99.90;;;;;;5068028;28;20021;-73
2023/11/23 08:52:37;;;;;;;18.67;10.48;;;11.10;99.90;;;;;;5061521;28;20023;-73
2023/11/23 08:55:04;;;;;;;23.10;11.00;;;11.10;99.90;;;;;;5062104;28;20103;-73
2023/11/23 08:57:30;;;;;;;21.08;11.70;;;11.20;99.90;;;;;;5063201;28;20417;-73
2023/11/23 08:59:57;;;;;;;19.45;10.57;;;11.20;99.90;;;;;;5066990;28;20034;-73
2023/11/23 09:02:23;;;;;;;17.02;10.20;;;11.20;99.90;;;;;;5066996;28;20029;-73
2023/11/23 09:04:48;;;;;;;20.35;10.68;;;11.20;99.90;;;;;;5066454;28;20047;-73
2023/11/23 09:07:14;;;;;;;20.30;11.23;;;11.20;99.90;;;;;;5067440;28;20078;-73
2023/11/23 09:09:40;;;;;;;17.55;9.73;;;11.20;99.90;;;;;;5067514;28;20067;-73
2023/11/23 09:12:06;;;;;;;19.02;10.52;;;11.30;99.90;;;;;;5062500;28;20557;-72
2023/11/23 09:14:32;;;;;;;21.42;10.20;;;11.30;99.90;;;;;;5056343;28;20053;-72
2023/11/23 09:16:58;;;;;;;15.35;9.18;;;11.30;99.90;;;;;;5063344;28;20052;-72
2023/11/23 09:19:24;;;;;;;18.13;10.38;;;11.30;99.90;;;;;;5067696;28;20044;-72
2023/11/23 09:21:50;;;;;;;21.90;9.50;;;11.30;99.90;;;;;;5066867;28;20393;-72
2023/11/23 09:24:16;;;;;;;25.20;11.55;;;11.30;99.90;;;;;;5067065;28;20027;-73
2023/11/23 09:26:42;;;;;;;20.13;9.80;;;11.40;99.90;;;;;;5066805;28;20028;-73
2023/11/23 09:29:07;;;;;;;18.77;10.02;;;11.40;99.90;;;;;;5067135;28;20075;-73
2023/11/23 09:31:34;;;;;;;21.48;10.40;;;11.40;99.90;;;;;;5061419;28;20024;-73
2023/11/23 09:34:00;;;;;;;15.48;9.23;;;11.40;99.90;;;;;;5065312;28;20047;-74
2023/11/23 09:36:29;;;;;;;18.88;11.02;;;11.40;99.90;;;;;;5048550;28;20881;-74
2023/11/23 09:38:55;;;;;;;19.63;10.23;;;11.50;99.90;;;;;;5048471;28;20059;-73
2023/11/23 09:41:24;;;;;;;17.33;9.93;;;11.50;99.90;;;;;;5048474;28;20692;-74
2023/11/23 09:43:51;;;;;;;17.10;9.77;;;11.50;99.90;;;;;;5067302;28;20028;-73
2023/11/23 09:46:19;;;;;;;15.30;9.50;;;11.50;99.90;;;;;;5066601;28;20502;-73
2023/11/23 09:48:45;;;;;;;23.30;10.00;;;11.50;99.90;;;;;;5050397;28;20024;-73
2023/11/23 09:51:11;;;;;;;14.52;8.45;;;11.50;99.90;;;;;;5048455;28;20016;-73
2023/11/23 09:53:41;;;;;;;17.77;9.43;;;11.60;99.90;;;;;;5066907;28;20079;-74
2023/11/23 09:56:08;;;;;;;18.65;9.35;;;11.60;99.90;;;;;;5065686;28;20067;-73
2023/11/23 09:58:34;;;;;;;15.48;8.02;;;11.60;99.90;;;;;;5066650;28;20527;-73
2023/11/23 10:01:02;;;;;;;15.65;8.00;;;11.60;99.90;;;;;;5066121;28;20040;-73
2023/11/23 10:03:33;;;;;;;21.83;9.73;;;11.60;99.90;;;;;;5065785;28;20036;-74
2023/11/23 10:05:59;;;;;;;;;;;11.70;99.90;;;;;;5066181;28;20469;-73
2023/11/23 10:08:27;;;;;;;33.15;20.83;;;11.70;99.90;;;;;;5062507;28;19916;-73
2023/11/23 10:10:53;;;;;;;23.70;15.57;;;11.70;99.90;;;;;;5048225;28;20021;-72
2023/11/23 10:13:19;;;;;;;29.17;15.20;;;11.70;99.90;;;;;;5066635;28;20038;-73
2023/11/23 10:15:46;;;;;;;15.45;8.00;;;11.70;99.90;;;;;;5066745;28;20024;-73
2023/11/23 10:18:12;;;;;;;15.57;7.85;;;11.80;99.90;;;;;;5066113;28;20021;-74
2023/11/23 10:20:43;;;;;;;14.98;7.20;;;11.80;99.90;;;;;;5065793;28;20071;-73
2023/11/23 10:23:09;;;;;;;15.13;7.35;;;11.80;99.90;;;;;;5066159;28;20029;-73
2023/11/23 10:25:35;;;;;;;17.58;7.65;;;11.80;99.90;;;;;;5065887;28;20025;-72
2023/11/23 10:28:03;;;;;;;19.13;7.55;;;11.80;99.90;;;;;;5058608;28;20074;-72
2023/11/23 10:30:29;;;;;;;16.98;7.40;;;11.90;99.90;;;;;;5066321;28;20025;-73
2023/11/23 10:32:56;;;;;;;13.80;7.13;;;11.90;99.90;;;;;;5066539;28;20017;-74
2023/11/23 10:35:39;;;;;;;18.27;7.70;;;11.90;99.90;;;;;;5057274;28;20021;-72
2023/11/23 10:38:07;;;;;;;16.83;7.55;;;11.90;99.90;;;;;;5065478;28;20052;-73
2023/11/23 10:40:33;;;;;;;16.48;7.28;;;12.00;99.90;;;;;;5066138;28;20020;-73
2023/11/23 10:43:02;;;;;;;15.07;7.75;;;12.00;99.90;;;;;;5065923;28;20032;-73
2023/11/23 10:45:29;;;;;;;19.73;7.50;;;12.00;99.90;;;;;;5065847;28;20036;-73
2023/11/23 10:47:58;;;;;;;17.38;7.38;;;12.00;99.90;;;;;;5065729;28;20077;-73
2023/11/23 10:50:24;;;;;;;14.25;6.00;;;12.10;99.90;;;;;;5063470;28;20033;-73
2023/11/23 10:52:55;;;;;;;15.10;6.45;;;12.10;99.90;;;;;;5065887;28;20489;-74
2023/11/23 10:55:20;;;;;;;12.07;5.82;;;12.10;99.90;;;;;;5047441;28;20841;-74
2023/11/23 10:58:01;;;;;;;17.33;6.03;;;12.10;99.90;;;;;;5065836;28;20021;-73
2023/11/23 11:00:28;;;;;;;13.68;6.03;;;12.10;99.90;;;;;;5065952;28;20478;-73
2023/11/23 11:03:01;;;;;;;15.80;6.55;;;12.10;99.90;;;;;;5066424;28;20085;-73
2023/11/23 11:05:37;;;;;;;10.98;5.85;;;12.10;99.90;;;;;;5064361;28;20024;-73
2023/11/23 11:08:07;;;;;;;11.93;5.13;;;12.20;99.90;;;;;;5065630;28;20029;-73
2023/11/23 11:10:44;;;;;;;16.30;5.53;;;12.20;99.90;;;;;;5065766;28;20560;-73
2023/11/23 11:13:15;;;;;;;10.77;5.35;;;12.30;99.90;;;;;;5066258;28;20514;-73
2023/11/23 11:15:59;;;;;;;12.90;5.35;;;12.30;99.90;;;;;;5064075;28;20077;-73
2023/11/23 11:18:27;;;;;;;13.90;5.50;;;12.30;99.90;;;;;;5056718;28;20497;-73
2023/11/23 11:21:11;;;;;;;18.45;5.93;;;12.30;99.90;;;;;;5050501;28;20119;-73
2023/11/23 11:23:43;;;;;;;16.85;6.75;;;12.40;99.90;;;;;;5065844;28;20032;-73
2023/11/23 11:26:21;;;;;;;14.82;5.80;;;12.40;99.90;;;;;;5065612;28;20545;-73
2023/11/23 11:28:54;;;;;;;17.30;5.78;;;12.30;99.90;;;;;;5063620;28;20035;-73
2023/11/23 11:31:31;;;;;;;9.68;4.85;;;12.40;99.90;;;;;;5065495;28;20024;-73
2023/11/23 11:33:59;;;;;;;14.48;5.68;;;12.40;99.90;;;;;;5059070;28;20485;-73
2023/11/23 11:36:30;;;;;;;12.18;5.25;;;12.40;99.90;;;;;;5067759;28;20508;-73
2023/11/23 11:39:00;;;;;;;11.82;4.50;;;12.40;99.90;;;;;;5053380;28;20454;-73
2023/11/23 11:41:29;;;;;;;11.88;5.35;;;12.40;99.90;;;;;;5069589;28;20043;-74
2023/11/23 11:43:58;;;;;;;10.52;4.43;;;12.40;99.90;;;;;;5069782;28;20046;-73
2023/11/23 11:46:24;;;;;;;13.15;4.65;;;12.40;99.90;;;;;;5068992;28;20074;-73
2023/11/23 11:48:50;;;;;;;9.95;3.90;;;12.40;99.90;;;;;;5069322;28;20508;-73
2023/11/23 11:51:16;;;;;;;11.30;4.07;;;12.40;99.90;;;;;;5069320;28;20032;-73
2023/11/23 11:53:46;;;;;;;10.75;4.05;;;12.40;99.90;;;;;;5069502;28;20062;-72
2023/11/23 11:56:13;;;;;;;9.07;4.00;;;12.40;99.90;;;;;;5068858;28;20046;-73
2023/11/23 11:58:39;;;;;;;13.13;4.72;;;12.50;99.90;;;;;;5069177;28;20031;-72
2023/11/23 12:01:08;;;;;;;11.05;4.20;;;12.50;99.90;;;;;;5071567;28;20441;-73
2023/11/23 12:03:34;;;;;;;13.55;4.43;;;12.50;99.90;;;;;;5051511;28;20032;-73
2023/11/23 12:06:01;;;;;;;11.85;4.70;;;12.50;99.90;;;;;;5068815;28;20023;-73
2023/11/23 12:08:36;;;;;;;11.90;4.50;;;12.50;99.90;;;;;;5067904;28;20105;-73
2023/11/23 12:11:03;;;;;;;11.27;4.03;;;12.50;99.90;;;;;;5049006;28;20147;-73
2023/11/23 12:13:33;;;;;;;11.73;3.85;;;12.50;99.90;;;;;;5066364;28;20024;-74
2023/11/23 12:15:59;;;;;;;7.05;3.50;;;12.50;99.90;;;;;;5068810;28;20393;-74
2023/11/23 12:18:34;;;;;;;10.48;3.85;;;12.60;99.90;;;;;;5068704;28;20033;-73
2023/11/23 12:21:01;;;;;;;11.52;3.97;;;12.60;99.90;;;;;;5066614;28;20050;-73
2023/11/23 12:23:26;;;;;;;7.82;3.58;;;12.60;99.90;;;;;;5068732;28;20093;-74
2023/11/23 12:25:53;;;;;;;12.02;3.70;;;12.60;99.90;;;;;;5050022;28;20025;-73
2023/11/23 12:28:20;;;;;;;9.35;3.47;;;12.60;99.90;;;;;;5068426;28;20020;-73
2023/11/23 12:30:46;;;;;;;10.60;3.00;;;12.60;99.90;;;;;;5068368;28;20028;-73
2023/11/23 12:33:12;;;;;;;11.82;3.40;;;12.60;99.90;;;;;;5050635;28;20078;-73